Latest Weather Observations for Narrandera Airport

IDN60801

Issued at 5:02 pm EST Monday 25 May 2015 (issued every 30 minutes, with the page automatically refreshed every 10 minutes)

About weather observations | Map of weather stations | Latest weather observations for NSW | Other Formats
Station Details ID: 074148 Name: NARRANDERA AIRPORT AWS Lat: -34.70 Lon: 146.51 Height: 145.0 m
Data from the previous 72 hours. | See also: Recent months for locations in New South Wales
Date/Time
EST
Temp
°C
App
Temp
°C
Dew
Point
Rel
Hum
%
Delta-T
°C
Wind Press
QNH
hPa
Press
MSL
hPa
Rain
since 9 am
mm
Dir
 
Spd
km/h
Gust
km/h
Spd
kts
Gust
kts
25/05:00pm 15.2 12.6 6.0 54 4.4 E 9 15 5 8 1029.1 1029.1 0.0
25/04:30pm 16.7 13.6 5.6 48 5.4 ESE 11 13 6 7 1029.1 1029.1 0.0
25/04:00pm 17.3 13.8 5.6 46 5.7 SE 13 17 7 9 1028.8 1028.8 0.0
25/03:30pm 17.7 14.9 5.0 43 6.1 SSW 9 13 5 7 1029.2 1029.2 0.0
25/03:00pm 17.8 15.4 5.1 43 6.1 SE 7 13 4 7 1029.4 1029.4 0.0
25/02:30pm 17.6 16.1 5.2 44 6.0 SE 2 9 1 5 1029.6 1029.6 0.0
25/02:00pm 17.6 15.2 5.2 44 6.0 ESE 7 13 4 7 1029.8 1029.8 0.0
25/01:30pm 18.0 16.0 6.2 46 5.9 NNW 6 13 3 7 1030.1 1030.1 0.0
25/01:00pm 17.6 15.6 6.2 47 5.6 N 6 13 3 7 1030.5 1030.6 0.0
25/12:30pm 17.2 15.1 6.7 50 5.2 N 7 15 4 8 1030.9 1031.0 0.0
25/12:00pm 15.8 12.9 6.5 54 4.5 NNW 11 15 6 8 1031.4 1031.5 0.0
25/11:30am 15.2 12.8 7.2 59 4.0 NNW 9 11 5 6 1032.3 1032.4 0.0
25/11:00am 14.7 12.8 6.8 59 3.8 N 6 7 3 4 1032.4 1032.5 0.0
25/10:30am 13.4 12.8 7.2 66 3.0 CALM 0 6 0 3 1032.5 1032.6 0.0
25/10:00am 12.1 10.3 7.8 75 2.1 E 7 11 4 6 1032.4 1032.5 0.0
25/09:30am 10.0 9.0 7.3 83 1.3 ESE 2 6 1 3 1032.2 1032.3 0.0
25/09:00am 9.5 7.1 6.8 83 1.3 E 9 9 5 5 1032.2 1032.3 0.0
25/08:30am 7.6 5.0 6.1 90 0.7 ESE 9 11 5 6 1032.2 1032.3 0.0
25/08:00am 6.9 4.2 5.5 91 0.6 SE 9 11 5 6 1032.0 1032.1 0.0
25/07:30am 6.7 3.9 5.2 90 0.7 ESE 9 11 5 6 1031.9 1032.0 0.0
25/07:00am 6.0 3.0 4.2 88 0.8 SE 9 11 5 6 1031.6 1031.7 0.0
25/06:30am 6.9 4.7 5.2 89 0.8 SSE 6 9 3 5 1031.5 1031.6 0.0
25/06:00am 6.1 2.9 4.9 92 0.5 SE 11 13 6 7 1031.0 1031.1 0.0
25/05:30am 6.1 3.6 4.6 90 0.7 ESE 7 11 4 6 1031.2 1031.3 0.0
25/05:00am 6.2 3.7 4.5 89 0.7 SE 7 9 4 5 1030.9 1031.0 0.0
25/04:30am 6.1 3.8 4.6 90 0.7 SE 6 9 3 5 1030.7 1030.8 0.0
25/04:00am 6.4 3.7 5.4 93 0.4 SE 9 11 5 6 1030.4 1030.4 0.0
25/03:30am 6.5 3.8 5.8 95 0.3 SE 9 11 5 6 1030.7 1030.8 0.0
25/03:00am 5.7 2.8 4.7 93 0.4 SE 9 11 5 6 1030.9 1031.0 0.0
25/02:30am 5.7 3.1 4.0 89 0.7 SE 7 9 4 5 1031.0 1031.1 0.0
25/02:00am 7.3 4.6 5.6 89 0.8 SE 9 11 5 6 1031.3 1031.4 0.0
25/01:30am 7.1 5.8 6.0 93 0.5 E 2 9 1 5 1030.9 1031.0 0.0
25/01:00am 7.1 4.9 6.0 93 0.5 SE 7 9 4 5 1031.1 1031.2 0.0
25/12:30am 5.5 2.5 4.2 91 0.6 ESE 9 11 5 6 1031.2 1031.3 0.0
25/12:00am 6.1 3.7 5.2 94 0.4 ESE 7 9 4 5 1031.6 1031.7 0.0
 
Date/Time
EST
Temp
°C
App
Temp
°C
Dew
Point
Rel
Hum
%
Delta-T
°C
Wind Press
QNH
hPa
Press
MSL
hPa
Rain
since 9 am
mm
Dir
 
Spd
km/h
Gust
km/h
Spd
kts
Gust
kts
24/11:30pm 6.9 4.9 6.2 95 0.3 ESE 6 9 3 5 1031.7 1031.8 0.0
24/11:00pm 5.4 3.0 4.5 94 0.4 SE 6 7 3 4 1031.7 1031.8 0.0
24/10:30pm 5.5 3.8 4.2 91 0.6 ESE 2 7 1 4 1031.8 1031.9 0.0
24/10:00pm 6.9 6.0 6.0 94 0.4 CALM 0 0 0 0 1032.1 1032.2 0.0
24/09:30pm 6.9 5.9 5.7 92 0.5 CALM 0 0 0 0 1032.0 1032.1 0.0
24/09:00pm 7.0 6.0 5.8 92 0.5 CALM 0 0 0 0 1032.1 1032.2 0.0
24/08:30pm 7.4 6.5 5.9 90 0.7 CALM 0 0 0 0 1031.7 1031.8 0.0
24/08:00pm 7.4 6.5 5.9 90 0.7 CALM 0 0 0 0 1031.4 1031.5 0.0
24/07:30pm 7.8 6.9 5.9 88 0.9 CALM 0 0 0 0 1031.2 1031.3 0.0
24/07:00pm 8.7 7.9 6.3 85 1.1 CALM 0 0 0 0 1031.3 1031.4 0.0
24/06:30pm 9.8 9.1 7.1 83 1.3 CALM 0 0 0 0 1031.1 1031.2 0.0
24/06:00pm 10.1 9.4 6.8 80 1.6 CALM 0 0 0 0 1030.9 1031.0 0.0
24/05:30pm 11.2 9.4 7.3 77 1.9 SE 6 7 3 4 1030.5 1030.6 0.0
24/05:00pm 12.2 10.3 7.5 73 2.3 SSW 7 9 4 5 1030.7 1030.8 0.0
24/04:30pm 14.1 13.5 7.2 63 3.4 CALM 0 0 0 0 1030.7 1030.8 0.0
24/04:00pm 15.1 13.1 6.1 55 4.3 ESE 6 9 3 5 1030.7 1030.8 0.0
24/03:30pm 15.8 13.0 5.1 49 5.1 SE 9 13 5 7 1030.4 1030.4 0.0
24/03:00pm 16.1 12.7 5.7 50 5.0 ESE 13 19 7 10 1030.2 1030.2 0.0
24/02:30pm 16.3 12.5 5.9 50 5.1 E 15 20 8 11 1030.3 1030.3 0.0
24/02:00pm 16.4 12.7 4.4 45 5.6 E 13 17 7 9 1030.3 1030.3 0.0
24/01:30pm 16.4 13.5 4.4 45 5.7 E 9 15 5 8 1030.6 1030.7 0.0
24/01:00pm 16.7 14.7 6.2 50 5.1 NE 6 13 3 7 1031.1 1031.2 0.0
24/12:30pm 16.1 14.2 5.1 48 5.3 E 4 7 2 4 1031.5 1031.6 0.0
24/12:00pm 16.5 15.8 6.9 53 4.7 CALM 0 0 0 0 1032.1 1032.2 0.0
24/11:30am 14.9 13.2 5.7 54 4.4 NNE 4 9 2 5 1032.7 1032.8 0.0
24/11:00am 14.4 12.8 6.5 59 3.8 N 4 9 2 5 1032.9 1033.0 0.0
24/10:30am 12.8 11.2 7.9 72 2.4 E 6 11 3 6 1032.9 1033.0 0.0
24/10:00am 11.1 10.1 7.2 77 1.9 E 2 9 1 5 1032.8 1032.9 0.0
24/09:30am 9.5 8.4 7.1 85 1.1 E 2 7 1 4 1032.8 1032.9 0.0
24/09:00am 7.4 5.5 6.7 95 0.3 SE 6 9 3 5 1032.8 1032.9 0.0
24/08:30am 5.0 3.5 4.9 99 0.0 SE 2 7 1 4 1032.4 1032.5 0.0
24/08:00am 2.6 1.0 2.5 99 0.0 CALM 0 0 0 0 1032.2 1032.3 0.0
24/07:30am 1.3 -0.5 1.0 98 0.1 CALM 0 0 0 0 1031.8 1031.9 0.0
24/07:00am 0.9 -1.0 0.6 98 0.1 CALM 0 0 0 0 1031.5 1031.6 0.0
24/06:30am 1.3 -1.8 1.2 99 0.0 SE 7 9 4 5 1031.2 1031.3 0.0
24/06:00am 1.0 -2.2 0.7 98 0.1 SE 7 9 4 5 1030.7 1030.8 0.0
24/05:30am 1.2 -0.7 0.8 97 0.1 CALM 0 0 0 0 1030.5 1030.6 0.0
24/05:00am 1.7 -0.1 1.4 98 0.1 CALM 0 0 0 0 1030.4 1030.4 0.0
24/04:30am 1.0 -2.3 0.4 96 0.2 SE 7 9 4 5 1030.3 1030.3 0.0
24/04:00am 1.7 -0.1 1.4 98 0.1 CALM 0 0 0 0 1030.1 1030.1 0.0
24/03:30am 1.2 -1.8 0.6 96 0.2 SSE 6 7 3 4 1030.1 1030.1 0.0
24/03:00am 2.1 0.3 1.5 96 0.2 CALM 0 0 0 0 1030.2 1030.2 0.0
24/02:30am 2.1 0.3 1.5 96 0.2 CALM 0 0 0 0 1030.2 1030.2 0.0
24/02:00am 2.4 0.7 1.8 96 0.2 CALM 0 0 0 0 1030.3 1030.3 0.0
24/01:30am 2.4 0.7 1.8 96 0.2 CALM 0 0 0 0 1030.3 1030.3 0.0
24/01:00am 2.6 0.9 1.9 95 0.3 CALM 0 0 0 0 1030.5 1030.6 0.0
24/12:30am 3.3 1.7 2.6 95 0.3 CALM 0 0 0 0 1030.7 1030.8 0.0
24/12:00am 3.9 2.5 3.3 96 0.2 CALM 0 0 0 0 1030.7 1030.8 0.0
 
Date/Time
EST
Temp
°C
App
Temp
°C
Dew
Point
Rel
Hum
%
Delta-T
°C
Wind Press
QNH
hPa
Press
MSL
hPa
Rain
since 9 am
mm
Dir
 
Spd
km/h
Gust
km/h
Spd
kts
Gust
kts
23/11:30pm 3.7 2.2 3.0 95 0.3 CALM 0 0 0 0 1030.7 1030.8 0.0
23/11:00pm 4.1 2.6 3.2 94 0.4 CALM 0 0 0 0 1030.6 1030.7 0.0
23/10:30pm 4.3 2.9 3.4 94 0.4 CALM 0 6 0 3 1030.6 1030.7 0.0
23/10:00pm 4.8 3.4 3.8 93 0.4 CALM 0 0 0 0 1030.6 1030.7 0.0
23/09:30pm 5.0 3.6 3.7 91 0.5 CALM 0 0 0 0 1030.6 1030.7 0.0
23/09:00pm 6.0 4.7 4.3 89 0.7 CALM 0 0 0 0 1030.6 1030.7 0.0
23/08:30pm 6.8 5.7 5.0 88 0.8 CALM 0 0 0 0 1030.6 1030.7 0.0
23/08:00pm 6.9 5.8 4.9 87 0.9 CALM 0 0 0 0 1030.4 1030.4 0.0
23/07:30pm 7.8 6.9 5.9 88 0.9 CALM 0 0 0 0 1030.3 1030.3 0.0
23/07:00pm 7.9 5.7 5.2 83 1.2 SSE 6 11 3 6 1030.1 1030.1 0.0
23/06:30pm 9.2 8.3 5.9 80 1.5 CALM 0 0 0 0 1029.8 1029.8 0.0
23/06:00pm 10.7 9.9 6.5 75 2.0 CALM 0 0 0 0 1029.7 1029.7 0.0
23/05:30pm 13.0 12.0 5.7 61 3.5 CALM 0 0 0 0 1029.5 1029.5 0.0
23/05:00pm 15.6 14.7 6.1 53 4.6 CALM 0 0 0 0 1029.3 1029.3 0.0
23/04:30pm 16.8 15.9 6.0 49 5.3 CALM 0 0 0 0 1029.4 1029.4 0.0
23/04:00pm 17.4 15.9 5.0 44 5.9 WSW 2 11 1 6 1029.5 1029.5 0.0
23/03:30pm 17.5 16.0 5.1 44 6.0 SSW 2 9 1 5 1029.5 1029.5 0.0
23/03:00pm 18.2 15.8 5.4 43 6.2 W 7 13 4 7 1029.5 1029.5 0.0
23/02:30pm 18.1 15.7 5.3 43 6.2 WNW 7 11 4 6 1029.5 1029.5 0.0
23/02:00pm 17.2 14.5 5.5 46 5.6 WNW 9 20 5 11 1029.6 1029.6 0.0
23/01:30pm 17.1 14.2 4.8 44 5.9 WSW 9 15 5 8 1029.9 1029.9 0.0
23/01:00pm 17.6 16.3 5.9 46 5.7 NNW 2 11 1 6 1030.1 1030.1 0.0
23/12:30pm 16.7 15.0 5.9 49 5.3 W 4 9 2 5 1030.5 1030.6 0.0
23/12:00pm 15.8 13.2 6.0 52 4.7 N 9 13 5 7 1030.8 1030.9 0.0
23/11:30am 15.3 13.1 6.3 55 4.4 N 7 15 4 8 1031.2 1031.3 0.0
23/11:00am 14.6 12.4 6.2 57 4.0 NNE 7 11 4 6 1031.5 1031.6 0.0
23/10:30am 14.2 13.2 7.5 64 3.3 N 2 9 1 5 1031.6 1031.7 0.0
23/10:00am 12.4 10.0 7.1 70 2.6 ENE 9 11 5 6 1031.6 1031.7 0.0
23/09:30am 11.5 10.6 7.6 77 1.9 NNE 2 6 1 3 1031.5 1031.6 0.0
23/09:00am 9.2 7.5 7.6 90 0.8 ESE 6 9 3 5 1031.3 1031.4 0.0
23/08:30am 6.7 4.8 6.6 99 0.0 SE 6 9 3 5 1031.1 1031.2 0.0
23/08:00am 3.6 1.0 3.3 98 0.1 SE 6 7 3 4 1030.8 1030.9 0.0
23/07:30am 1.4 -0.5 0.8 96 0.2 CALM 0 0 0 0 1030.5 1030.6 0.0
23/07:00am 1.4 -0.5 0.8 96 0.2 CALM 0 0 0 0 1030.3 1030.3 0.0
23/06:30am 1.2 -0.7 0.6 96 0.2 CALM 0 0 0 0 1030.1 1030.1 0.0
23/06:00am 1.8 0.0 1.2 96 0.2 CALM 0 0 0 0 1029.7 1029.7 0.0
23/05:30am 1.5 -0.4 0.8 95 0.3 CALM 0 0 0 0 1029.5 1029.5 0.0
23/05:00am 2.0 0.2 1.3 95 0.3 CALM 0 0 0 0 1029.2 1029.2 0.0
23/04:30am 2.1 0.3 1.5 96 0.2 CALM 0 0 0 0 1029.1 1029.1 0.0
23/04:00am 2.9 1.3 2.3 96 0.2 CALM 0 0 0 0 1028.8 1028.8 0.0
23/03:30am 2.4 0.7 1.7 95 0.3 CALM 0 0 0 0 1028.8 1028.8 0.0
23/03:00am 2.4 0.7 1.7 95 0.3 CALM 0 0 0 0 1028.7 1028.7 0.0
23/02:30am 2.8 1.1 1.9 94 0.4 CALM 0 0 0 0 1028.8 1028.8 0.0
23/02:00am 3.3 1.7 2.4 94 0.4 CALM 0 0 0 0 1028.9 1028.9 0.0
23/01:30am 3.7 2.1 2.7 93 0.4 CALM 0 0 0 0 1028.8 1028.8 0.0
23/01:00am 4.3 2.9 3.4 94 0.4 CALM 0 0 0 0 1028.8 1028.8 0.0
23/12:30am 4.0 2.5 2.8 92 0.5 CALM 0 0 0 0 1028.8 1028.8 0.0
23/12:00am 4.7 3.3 3.5 92 0.5 CALM 0 0 0 0 1029.0 1029.0 0.0
 
Date/Time
EST
Temp
°C
App
Temp
°C
Dew
Point
Rel
Hum
%
Delta-T
°C
Wind Press
QNH
hPa
Press
MSL
hPa
Rain
since 9 am
mm
Dir
 
Spd
km/h
Gust
km/h
Spd
kts
Gust
kts
22/11:30pm 5.1 3.8 3.9 92 0.5 CALM 0 0 0 0 1028.9 1028.9 0.0
22/11:00pm 5.3 3.9 3.6 89 0.7 CALM 0 0 0 0 1028.6 1028.6 0.0
22/10:30pm 6.0 4.8 4.5 90 0.7 CALM 0 0 0 0 1028.5 1028.5 0.0
22/10:00pm 6.2 5.0 4.4 88 0.8 CALM 0 2 0 1 1028.5 1028.5 0.0
22/09:30pm 6.8 5.6 4.5 85 1.0 CALM 0 0 0 0 1028.1 1028.1 0.0
22/09:00pm 7.5 6.3 4.6 82 1.3 CALM 0 0 0 0 1028.0 1028.0 0.0
22/08:30pm 8.3 7.1 4.7 78 1.6 CALM 0 0 0 0 1027.9 1027.9 0.0
22/08:00pm 8.7 7.4 4.1 73 2.0 CALM 0 0 0 0 1027.7 1027.7 0.0
22/07:30pm 10.3 7.8 4.9 69 2.5 S 7 9 4 5 1027.5 1027.5 0.0
22/07:00pm 11.3 8.5 5.0 65 2.9 S 9 13 5 7 1027.0 1027.0 0.0
22/06:30pm 12.4 9.2 4.9 60 3.5 S 11 13 6 7 1026.6 1026.7 0.0
22/06:00pm 13.2 10.3 4.9 57 3.8 S 9 11 5 6 1026.3 1026.4 0.0
22/05:30pm 14.4 11.2 5.0 53 4.4 S 11 15 6 8 1025.9 1026.0 0.0

Other Formats:

Comma delimited format used in spreadsheet applications
http://www.bom.gov.au/fwo/IDN60801/IDN60801.95706.axf

JavaScript Object Notation format (JSON) in row-major order
http://www.bom.gov.au/fwo/IDN60801/IDN60801.95706.json